sensor_id;sensor_type;location;lat;lon;timestamp;temperature;humidity
53653;DHT22;39553;52.954;5.932;2023-07-09T00:02:16;24.30;36.40
53653;DHT22;39553;52.954;5.932;2023-07-09T00:04:42;24.20;36.60
53653;DHT22;39553;52.954;5.932;2023-07-09T00:07:32;24.20;36.70
53653;DHT22;39553;52.954;5.932;2023-07-09T00:09:59;24.10;36.80
53653;DHT22;39553;52.954;5.932;2023-07-09T00:12:25;24.10;37.10
53653;DHT22;39553;52.954;5.932;2023-07-09T00:14:51;24.00;37.50
53653;DHT22;39553;52.954;5.932;2023-07-09T00:17:29;23.90;37.70
53653;DHT22;39553;52.954;5.932;2023-07-09T00:19:56;23.90;38.00
53653;DHT22;39553;52.954;5.932;2023-07-09T00:22:22;23.80;37.90
53653;DHT22;39553;52.954;5.932;2023-07-09T00:24:50;23.80;38.50
53653;DHT22;39553;52.954;5.932;2023-07-09T00:27:28;23.80;39.00
53653;DHT22;39553;52.954;5.932;2023-07-09T00:29:56;23.70;39.50
53653;DHT22;39553;52.954;5.932;2023-07-09T00:32:21;23.70;39.30
53653;DHT22;39553;52.954;5.932;2023-07-09T00:34:48;23.70;39.40
53653;DHT22;39553;52.954;5.932;2023-07-09T00:37:23;23.60;39.30
53653;DHT22;39553;52.954;5.932;2023-07-09T00:39:51;23.60;39.50
53653;DHT22;39553;52.954;5.932;2023-07-09T00:42:19;23.60;39.40
53653;DHT22;39553;52.954;5.932;2023-07-09T00:44:53;23.50;39.60
53653;DHT22;39553;52.954;5.932;2023-07-09T00:50:26;23.50;39.60
53653;DHT22;39553;52.954;5.932;2023-07-09T00:52:59;23.50;39.90
53653;DHT22;39553;52.954;5.932;2023-07-09T00:55:34;23.50;39.50
53653;DHT22;39553;52.954;5.932;2023-07-09T00:58:06;23.50;39.30
53653;DHT22;39553;52.954;5.932;2023-07-09T01:00:44;23.50;39.00
53653;DHT22;39553;52.954;5.932;2023-07-09T01:03:20;23.50;39.00
53653;DHT22;39553;52.954;5.932;2023-07-09T01:05:48;23.50;38.70
53653;DHT22;39553;52.954;5.932;2023-07-09T01:08:18;23.50;38.50
53653;DHT22;39553;52.954;5.932;2023-07-09T01:10:45;23.50;38.50
53653;DHT22;39553;52.954;5.932;2023-07-09T01:13:11;23.50;38.50
53653;DHT22;39553;52.954;5.932;2023-07-09T01:15:37;23.50;38.40
53653;DHT22;39553;52.954;5.932;2023-07-09T01:18:05;23.50;38.30
53653;DHT22;39553;52.954;5.932;2023-07-09T01:20:31;23.50;38.60
53653;DHT22;39553;52.954;5.932;2023-07-09T01:22:58;23.50;39.00
53653;DHT22;39553;52.954;5.932;2023-07-09T01:25:26;23.50;39.10
53653;DHT22;39553;52.954;5.932;2023-07-09T01:27:54;23.40;39.40
53653;DHT22;39553;52.954;5.932;2023-07-09T01:30:24;23.40;39.20
53653;DHT22;39553;52.954;5.932;2023-07-09T01:32:51;23.40;39.30
53653;DHT22;39553;52.954;5.932;2023-07-09T01:35:21;23.30;39.50
53653;DHT22;39553;52.954;5.932;2023-07-09T01:37:48;23.30;39.60
53653;DHT22;39553;52.954;5.932;2023-07-09T01:40:17;23.30;39.90
53653;DHT22;39553;52.954;5.932;2023-07-09T01:42:44;23.30;40.20
53653;DHT22;39553;52.954;5.932;2023-07-09T01:45:11;23.20;40.20
53653;DHT22;39553;52.954;5.932;2023-07-09T01:47:37;23.20;40.80
53653;DHT22;39553;52.954;5.932;2023-07-09T01:50:05;23.20;41.00
53653;DHT22;39553;52.954;5.932;2023-07-09T01:52:32;23.20;41.10
53653;DHT22;39553;52.954;5.932;2023-07-09T01:54:58;23.10;40.90
53653;DHT22;39553;52.954;5.932;2023-07-09T01:57:26;23.20;41.70
53653;DHT22;39553;52.954;5.932;2023-07-09T02:00:00;23.10;42.00
53653;DHT22;39553;52.954;5.932;2023-07-09T02:02:29;23.10;42.50
53653;DHT22;39553;52.954;5.932;2023-07-09T02:04:56;23.00;42.50
53653;DHT22;39553;52.954;5.932;2023-07-09T02:07:23;23.00;43.60
53653;DHT22;39553;52.954;5.932;2023-07-09T02:09:50;22.90;44.00
53653;DHT22;39553;52.954;5.932;2023-07-09T02:12:16;22.90;44.60
53653;DHT22;39553;52.954;5.932;2023-07-09T02:14:44;22.80;44.50
53653;DHT22;39553;52.954;5.932;2023-07-09T02:17:10;22.80;44.90
53653;DHT22;39553;52.954;5.932;2023-07-09T02:19:37;22.80;45.60
53653;DHT22;39553;52.954;5.932;2023-07-09T02:22:04;22.70;46.00
53653;DHT22;39553;52.954;5.932;2023-07-09T02:24:30;22.70;46.20
53653;DHT22;39553;52.954;5.932;2023-07-09T02:27:02;22.70;46.40
53653;DHT22;39553;52.954;5.932;2023-07-09T02:29:28;22.60;47.60
53653;DHT22;39553;52.954;5.932;2023-07-09T02:31:57;22.60;47.20
53653;DHT22;39553;52.954;5.932;2023-07-09T02:34:25;22.60;47.80
53653;DHT22;39553;52.954;5.932;2023-07-09T02:36:55;22.50;47.20
53653;DHT22;39553;52.954;5.932;2023-07-09T02:39:22;22.40;47.40
53653;DHT22;39553;52.954;5.932;2023-07-09T02:41:48;22.40;48.30
53653;DHT22;39553;52.954;5.932;2023-07-09T02:44:15;22.40;48.10
53653;DHT22;39553;52.954;5.932;2023-07-09T02:46:41;22.40;48.70
53653;DHT22;39553;52.954;5.932;2023-07-09T02:49:10;22.30;49.10
53653;DHT22;39553;52.954;5.932;2023-07-09T02:51:36;22.30;49.20
53653;DHT22;39553;52.954;5.932;2023-07-09T02:54:03;22.20;49.00
53653;DHT22;39553;52.954;5.932;2023-07-09T02:56:29;22.20;49.50
53653;DHT22;39553;52.954;5.932;2023-07-09T02:58:55;22.20;50.00
53653;DHT22;39553;52.954;5.932;2023-07-09T03:01:20;22.10;50.20
53653;DHT22;39553;52.954;5.932;2023-07-09T03:03:57;22.10;50.20
53653;DHT22;39553;52.954;5.932;2023-07-09T03:06:26;22.10;50.80
53653;DHT22;39553;52.954;5.932;2023-07-09T03:08:52;22.00;50.60
53653;DHT22;39553;52.954;5.932;2023-07-09T03:11:19;22.00;51.70
53653;DHT22;39553;52.954;5.932;2023-07-09T03:13:45;22.00;51.30
53653;DHT22;39553;52.954;5.932;2023-07-09T03:16:11;22.00;51.40
53653;DHT22;39553;52.954;5.932;2023-07-09T03:18:38;22.00;51.50
53653;DHT22;39553;52.954;5.932;2023-07-09T03:21:04;21.90;51.70
53653;DHT22;39553;52.954;5.932;2023-07-09T03:23:30;21.90;51.90
53653;DHT22;39553;52.954;5.932;2023-07-09T03:25:55;21.90;52.00
53653;DHT22;39553;52.954;5.932;2023-07-09T03:28:21;21.90;52.40
53653;DHT22;39553;52.954;5.932;2023-07-09T03:30:49;21.80;52.50
53653;DHT22;39553;52.954;5.932;2023-07-09T03:33:16;21.80;52.60
53653;DHT22;39553;52.954;5.932;2023-07-09T03:35:42;21.80;52.80
53653;DHT22;39553;52.954;5.932;2023-07-09T03:38:10;21.80;53.80
53653;DHT22;39553;52.954;5.932;2023-07-09T03:40:37;21.90;53.40
53653;DHT22;39553;52.954;5.932;2023-07-09T03:43:07;21.90;53.80
53653;DHT22;39553;52.954;5.932;2023-07-09T03:45:34;21.90;54.20
53653;DHT22;39553;52.954;5.932;2023-07-09T03:48:00;22.00;54.80
53653;DHT22;39553;52.954;5.932;2023-07-09T03:50:26;22.00;55.10
53653;DHT22;39553;52.954;5.932;2023-07-09T03:52:52;22.10;55.40
53653;DHT22;39553;52.954;5.932;2023-07-09T03:55:17;22.10;54.80
53653;DHT22;39553;52.954;5.932;2023-07-09T03:57:43;22.10;54.50
53653;DHT22;39553;52.954;5.932;2023-07-09T04:00:09;22.10;54.20
53653;DHT22;39553;52.954;5.932;2023-07-09T04:02:36;22.10;54.30
53653;DHT22;39553;52.954;5.932;2023-07-09T04:05:03;22.10;54.50
53653;DHT22;39553;52.954;5.932;2023-07-09T04:07:29;22.10;54.70
53653;DHT22;39553;52.954;5.932;2023-07-09T04:09:54;22.10;54.40
53653;DHT22;39553;52.954;5.932;2023-07-09T04:12:20;22.10;54.80
53653;DHT22;39553;52.954;5.932;2023-07-09T04:14:46;22.10;54.90
53653;DHT22;39553;52.954;5.932;2023-07-09T04:17:12;22.10;55.10
53653;DHT22;39553;52.954;5.932;2023-07-09T04:19:38;22.10;55.10
53653;DHT22;39553;52.954;5.932;2023-07-09T04:22:04;22.10;55.10
53653;DHT22;39553;52.954;5.932;2023-07-09T04:24:31;22.00;55.20
53653;DHT22;39553;52.954;5.932;2023-07-09T04:26:58;22.10;55.40
53653;DHT22;39553;52.954;5.932;2023-07-09T04:29:29;22.10;55.50
53653;DHT22;39553;52.954;5.932;2023-07-09T04:31:55;22.10;56.50
53653;DHT22;39553;52.954;5.932;2023-07-09T04:34:21;22.20;57.00
53653;DHT22;39553;52.954;5.932;2023-07-09T04:36:47;22.20;56.50
53653;DHT22;39553;52.954;5.932;2023-07-09T04:39:12;22.20;57.00
53653;DHT22;39553;52.954;5.932;2023-07-09T04:41:39;22.30;56.90
53653;DHT22;39553;52.954;5.932;2023-07-09T04:44:05;22.30;57.10
53653;DHT22;39553;52.954;5.932;2023-07-09T04:46:30;22.40;57.20
53653;DHT22;39553;52.954;5.932;2023-07-09T04:48:56;22.50;57.50
53653;DHT22;39553;52.954;5.932;2023-07-09T04:51:22;22.50;57.60
53653;DHT22;39553;52.954;5.932;2023-07-09T04:53:47;22.50;57.40
53653;DHT22;39553;52.954;5.932;2023-07-09T04:56:17;22.60;57.30
53653;DHT22;39553;52.954;5.932;2023-07-09T04:58:43;22.60;57.40
53653;DHT22;39553;52.954;5.932;2023-07-09T05:01:09;22.70;57.00
53653;DHT22;39553;52.954;5.932;2023-07-09T05:03:35;22.70;57.20
53653;DHT22;39553;52.954;5.932;2023-07-09T05:06:00;22.70;57.70
53653;DHT22;39553;52.954;5.932;2023-07-09T05:08:26;22.70;57.90
53653;DHT22;39553;52.954;5.932;2023-07-09T05:10:53;22.70;57.70
53653;DHT22;39553;52.954;5.932;2023-07-09T05:13:19;22.80;58.20
53653;DHT22;39553;52.954;5.932;2023-07-09T05:15:46;22.80;58.20
53653;DHT22;39553;52.954;5.932;2023-07-09T05:18:13;22.80;58.00
53653;DHT22;39553;52.954;5.932;2023-07-09T05:20:40;22.80;58.20
53653;DHT22;39553;52.954;5.932;2023-07-09T05:23:07;22.80;58.60
53653;DHT22;39553;52.954;5.932;2023-07-09T05:25:33;22.80;59.00
53653;DHT22;39553;52.954;5.932;2023-07-09T05:27:58;22.60;58.80
53653;DHT22;39553;52.954;5.932;2023-07-09T05:30:25;22.60;59.30
53653;DHT22;39553;52.954;5.932;2023-07-09T05:32:51;22.50;60.20
53653;DHT22;39553;52.954;5.932;2023-07-09T05:35:19;22.50;60.70
53653;DHT22;39553;52.954;5.932;2023-07-09T05:37:45;22.60;60.90
53653;DHT22;39553;52.954;5.932;2023-07-09T05:40:11;22.60;61.10
53653;DHT22;39553;52.954;5.932;2023-07-09T05:42:37;22.60;61.50
53653;DHT22;39553;52.954;5.932;2023-07-09T05:45:03;22.60;61.60
53653;DHT22;39553;52.954;5.932;2023-07-09T05:47:28;22.70;62.00
53653;DHT22;39553;52.954;5.932;2023-07-09T05:49:55;22.70;62.20
53653;DHT22;39553;52.954;5.932;2023-07-09T05:52:22;22.70;63.10
53653;DHT22;39553;52.954;5.932;2023-07-09T05:54:50;22.80;63.10
53653;DHT22;39553;52.954;5.932;2023-07-09T05:57:16;22.80;63.20
53653;DHT22;39553;52.954;5.932;2023-07-09T05:59:41;22.90;63.20
53653;DHT22;39553;52.954;5.932;2023-07-09T06:02:11;22.90;63.50
53653;DHT22;39553;52.954;5.932;2023-07-09T06:04:37;23.10;63.80
53653;DHT22;39553;52.954;5.932;2023-07-09T06:07:03;23.20;63.90
53653;DHT22;39553;52.954;5.932;2023-07-09T06:09:30;23.30;63.70
53653;DHT22;39553;52.954;5.932;2023-07-09T06:11:56;23.30;64.00
53653;DHT22;39553;52.954;5.932;2023-07-09T06:14:21;23.50;64.20
53653;DHT22;39553;52.954;5.932;2023-07-09T06:16:47;23.60;64.10
53653;DHT22;39553;52.954;5.932;2023-07-09T06:19:13;23.60;64.20
53653;DHT22;39553;52.954;5.932;2023-07-09T06:21:39;23.70;64.80
53653;DHT22;39553;52.954;5.932;2023-07-09T06:24:06;23.80;65.00
53653;DHT22;39553;52.954;5.932;2023-07-09T06:26:32;24.00;64.70
53653;DHT22;39553;52.954;5.932;2023-07-09T06:28:58;24.10;64.50
53653;DHT22;39553;52.954;5.932;2023-07-09T06:31:24;24.30;64.50
53653;DHT22;39553;52.954;5.932;2023-07-09T06:33:50;24.40;63.70
53653;DHT22;39553;52.954;5.932;2023-07-09T06:36:17;24.50;64.30
53653;DHT22;39553;52.954;5.932;2023-07-09T06:38:44;24.70;64.20
53653;DHT22;39553;52.954;5.932;2023-07-09T06:41:10;24.70;63.60
53653;DHT22;39553;52.954;5.932;2023-07-09T06:43:36;24.80;63.20
53653;DHT22;39553;52.954;5.932;2023-07-09T06:46:06;24.80;63.10
53653;DHT22;39553;52.954;5.932;2023-07-09T06:48:32;24.80;63.50
53653;DHT22;39553;52.954;5.932;2023-07-09T06:50:59;24.80;64.40
53653;DHT22;39553;52.954;5.932;2023-07-09T06:53:26;24.90;64.80
53653;DHT22;39553;52.954;5.932;2023-07-09T06:55:53;25.00;65.00
53653;DHT22;39553;52.954;5.932;2023-07-09T06:58:21;25.10;65.00
53653;DHT22;39553;52.954;5.932;2023-07-09T07:00:51;25.10;64.80
53653;DHT22;39553;52.954;5.932;2023-07-09T07:03:17;25.20;64.50
53653;DHT22;39553;52.954;5.932;2023-07-09T07:05:45;25.30;64.20
53653;DHT22;39553;52.954;5.932;2023-07-09T07:08:12;25.30;63.90
53653;DHT22;39553;52.954;5.932;2023-07-09T07:10:38;25.30;64.20
53653;DHT22;39553;52.954;5.932;2023-07-09T07:13:04;25.40;64.30
53653;DHT22;39553;52.954;5.932;2023-07-09T07:15:30;25.50;64.40
53653;DHT22;39553;52.954;5.932;2023-07-09T07:17:56;25.60;64.80
53653;DHT22;39553;52.954;5.932;2023-07-09T07:20:21;25.70;64.90
53653;DHT22;39553;52.954;5.932;2023-07-09T07:22:47;25.90;65.30
53653;DHT22;39553;52.954;5.932;2023-07-09T07:25:13;26.10;65.30
53653;DHT22;39553;52.954;5.932;2023-07-09T07:27:39;26.20;64.90
53653;DHT22;39553;52.954;5.932;2023-07-09T07:30:06;26.30;64.30
53653;DHT22;39553;52.954;5.932;2023-07-09T07:32:39;26.40;64.00
53653;DHT22;39553;52.954;5.932;2023-07-09T07:35:07;26.60;63.70
53653;DHT22;39553;52.954;5.932;2023-07-09T07:37:33;26.60;62.90
53653;DHT22;39553;52.954;5.932;2023-07-09T07:39:59;26.70;62.70
53653;DHT22;39553;52.954;5.932;2023-07-09T07:42:25;26.80;62.60
53653;DHT22;39553;52.954;5.932;2023-07-09T07:44:50;26.90;62.00
53653;DHT22;39553;52.954;5.932;2023-07-09T07:47:18;27.00;61.90
53653;DHT22;39553;52.954;5.932;2023-07-09T07:49:43;27.00;61.00
53653;DHT22;39553;52.954;5.932;2023-07-09T07:52:09;27.10;60.50
53653;DHT22;39553;52.954;5.932;2023-07-09T07:54:35;27.10;60.50
53653;DHT22;39553;52.954;5.932;2023-07-09T07:57:01;27.20;59.60
53653;DHT22;39553;52.954;5.932;2023-07-09T07:59:27;27.20;59.50
53653;DHT22;39553;52.954;5.932;2023-07-09T08:01:53;27.30;59.20
53653;DHT22;39553;52.954;5.932;2023-07-09T08:04:19;27.30;58.40
53653;DHT22;39553;52.954;5.932;2023-07-09T08:06:44;27.30;58.10
53653;DHT22;39553;52.954;5.932;2023-07-09T08:09:10;27.40;58.40
53653;DHT22;39553;52.954;5.932;2023-07-09T08:11:36;27.50;58.90
53653;DHT22;39553;52.954;5.932;2023-07-09T08:14:01;27.60;58.70
53653;DHT22;39553;52.954;5.932;2023-07-09T08:16:27;27.70;58.10
53653;DHT22;39553;52.954;5.932;2023-07-09T08:18:53;27.70;58.30
53653;DHT22;39553;52.954;5.932;2023-07-09T08:21:20;27.70;58.80
53653;DHT22;39553;52.954;5.932;2023-07-09T08:23:45;27.70;58.00
53653;DHT22;39553;52.954;5.932;2023-07-09T08:26:11;27.70;58.70
53653;DHT22;39553;52.954;5.932;2023-07-09T08:28:37;27.70;59.20
53653;DHT22;39553;52.954;5.932;2023-07-09T08:31:03;27.80;60.20
53653;DHT22;39553;52.954;5.932;2023-07-09T08:33:30;28.10;61.60
53653;DHT22;39553;52.954;5.932;2023-07-09T08:35:56;28.40;60.80
53653;DHT22;39553;52.954;5.932;2023-07-09T08:38:23;28.40;59.40
53653;DHT22;39553;52.954;5.932;2023-07-09T08:41:20;28.30;59.00
53653;DHT22;39553;52.954;5.932;2023-07-09T08:49:45;28.20;52.80
53653;DHT22;39553;52.954;5.932;2023-07-09T08:52:27;28.20;50.00
53653;DHT22;39553;52.954;5.932;2023-07-09T08:54:55;28.40;50.40
53653;DHT22;39553;52.954;5.932;2023-07-09T08:57:26;28.60;49.00
53653;DHT22;39553;52.954;5.932;2023-07-09T08:59:59;28.70;47.90
53653;DHT22;39553;52.954;5.932;2023-07-09T09:02:46;28.80;47.10
53653;DHT22;39553;52.954;5.932;2023-07-09T09:05:18;28.80;46.30
53653;DHT22;39553;52.954;5.932;2023-07-09T09:07:49;28.80;46.70
53653;DHT22;39553;52.954;5.932;2023-07-09T09:10:21;29.00;45.00
53653;DHT22;39553;52.954;5.932;2023-07-09T09:13:05;29.30;43.20
53653;DHT22;39553;52.954;5.932;2023-07-09T09:15:32;29.50;41.90
53653;DHT22;39553;52.954;5.932;2023-07-09T09:18:18;29.70;39.80
53653;DHT22;39553;52.954;5.932;2023-07-09T09:20:52;29.70;38.50
53653;DHT22;39553;52.954;5.932;2023-07-09T09:23:19;29.80;38.20
53653;DHT22;39553;52.954;5.932;2023-07-09T09:25:50;29.90;38.20
53653;DHT22;39553;52.954;5.932;2023-07-09T09:28:17;30.20;36.80
53653;DHT22;39553;52.954;5.932;2023-07-09T09:30:43;30.20;36.80
53653;DHT22;39553;52.954;5.932;2023-07-09T09:33:10;30.30;36.60
53653;DHT22;39553;52.954;5.932;2023-07-09T09:35:41;30.30;36.30
53653;DHT22;39553;52.954;5.932;2023-07-09T09:38:17;30.30;37.10
53653;DHT22;39553;52.954;5.932;2023-07-09T09:40:43;30.60;34.20
53653;DHT22;39553;52.954;5.932;2023-07-09T09:43:16;30.80;33.20
53653;DHT22;39553;52.954;5.932;2023-07-09T09:45:44;30.80;32.20
53653;DHT22;39553;52.954;5.932;2023-07-09T09:48:31;31.00;32.00
53653;DHT22;39553;52.954;5.932;2023-07-09T09:50:58;31.20;31.10
53653;DHT22;39553;52.954;5.932;2023-07-09T09:53:28;31.10;30.20
53653;DHT22;39553;52.954;5.932;2023-07-09T09:55:55;31.10;30.70
53653;DHT22;39553;52.954;5.932;2023-07-09T09:58:28;31.10;31.50
53653;DHT22;39553;52.954;5.932;2023-07-09T10:00:57;31.30;30.00
53653;DHT22;39553;52.954;5.932;2023-07-09T10:03:37;31.70;29.00
53653;DHT22;39553;52.954;5.932;2023-07-09T10:06:16;32.10;27.70
53653;DHT22;39553;52.954;5.932;2023-07-09T10:20:15;32.90;26.00
53653;DHT22;39553;52.954;5.932;2023-07-09T10:25:57;33.10;25.30
53653;DHT22;39553;52.954;5.932;2023-07-09T10:31:26;33.70;25.00
53653;DHT22;39553;52.954;5.932;2023-07-09T10:33:57;34.10;25.30
53653;DHT22;39553;52.954;5.932;2023-07-09T10:39:06;34.50;25.40
53653;DHT22;39553;52.954;5.932;2023-07-09T10:41:36;34.70;25.80
53653;DHT22;39553;52.954;5.932;2023-07-09T10:46:45;35.20;25.00
53653;DHT22;39553;52.954;5.932;2023-07-09T10:49:13;35.40;24.00
53653;DHT22;39553;52.954;5.932;2023-07-09T10:55:30;35.80;21.50
53653;DHT22;39553;52.954;5.932;2023-07-09T10:58:24;35.90;21.50
53653;DHT22;39553;52.954;5.932;2023-07-09T11:00:54;36.20;21.50
53653;DHT22;39553;52.954;5.932;2023-07-09T11:03:29;36.20;20.40
53653;DHT22;39553;52.954;5.932;2023-07-09T11:05:59;36.40;19.50
53653;DHT22;39553;52.954;5.932;2023-07-09T11:08:36;36.50;20.00
53653;DHT22;39553;52.954;5.932;2023-07-09T11:11:08;36.60;19.60
53653;DHT22;39553;52.954;5.932;2023-07-09T11:13:43;36.80;20.30
53653;DHT22;39553;52.954;5.932;2023-07-09T11:16:15;37.00;20.30
53653;DHT22;39553;52.954;5.932;2023-07-09T11:18:54;37.10;19.90
53653;DHT22;39553;52.954;5.932;2023-07-09T11:21:20;37.40;19.20
53653;DHT22;39553;52.954;5.932;2023-07-09T11:23:55;37.30;18.50
53653;DHT22;39553;52.954;5.932;2023-07-09T11:26:27;37.30;19.10
53653;DHT22;39553;52.954;5.932;2023-07-09T11:31:38;37.60;18.80
53653;DHT22;39553;52.954;5.932;2023-07-09T11:34:10;37.70;18.90
53653;DHT22;39553;52.954;5.932;2023-07-09T11:36:50;37.70;18.70
53653;DHT22;39553;52.954;5.932;2023-07-09T11:42:02;37.90;18.10
53653;DHT22;39553;52.954;5.932;2023-07-09T11:44:31;38.10;18.30
53653;DHT22;39553;52.954;5.932;2023-07-09T11:47:27;38.30;17.90
53653;DHT22;39553;52.954;5.932;2023-07-09T11:49:57;38.50;17.40
53653;DHT22;39553;52.954;5.932;2023-07-09T11:55:42;38.50;16.80
53653;DHT22;39553;52.954;5.932;2023-07-09T11:58:17;38.90;16.30
53653;DHT22;39553;52.954;5.932;2023-07-09T12:03:30;39.00;15.40
53653;DHT22;39553;52.954;5.932;2023-07-09T12:06:04;38.70;15.20
53653;DHT22;39553;52.954;5.932;2023-07-09T12:08:38;38.20;15.30
53653;DHT22;39553;52.954;5.932;2023-07-09T12:11:05;37.90;15.60
53653;DHT22;39553;52.954;5.932;2023-07-09T12:13:38;37.70;16.20
53653;DHT22;39553;52.954;5.932;2023-07-09T12:16:17;37.70;16.40
53653;DHT22;39553;52.954;5.932;2023-07-09T12:18:44;37.70;16.30
53653;DHT22;39553;52.954;5.932;2023-07-09T12:21:12;37.60;16.70
53653;DHT22;39553;52.954;5.932;2023-07-09T12:23:40;37.40;16.60
53653;DHT22;39553;52.954;5.932;2023-07-09T12:26:10;37.00;16.60
53653;DHT22;39553;52.954;5.932;2023-07-09T12:28:37;36.50;16.90
53653;DHT22;39553;52.954;5.932;2023-07-09T12:31:03;36.10;17.60
53653;DHT22;39553;52.954;5.932;2023-07-09T12:33:29;35.80;18.20
53653;DHT22;39553;52.954;5.932;2023-07-09T12:36:00;35.80;18.30
53653;DHT22;39553;52.954;5.932;2023-07-09T12:38:29;35.60;18.40
53653;DHT22;39553;52.954;5.932;2023-07-09T12:41:00;35.50;18.10
53653;DHT22;39553;52.954;5.932;2023-07-09T12:43:28;35.20;18.40
53653;DHT22;39553;52.954;5.932;2023-07-09T12:45:56;34.90;18.40
53653;DHT22;39553;52.954;5.932;2023-07-09T12:48:25;34.60;18.10
53653;DHT22;39553;52.954;5.932;2023-07-09T12:50:55;34.20;18.30
53653;DHT22;39553;52.954;5.932;2023-07-09T12:53:24;34.00;18.40
53653;DHT22;39553;52.954;5.932;2023-07-09T12:55:55;33.90;18.00
53653;DHT22;39553;52.954;5.932;2023-07-09T12:58:30;33.80;18.00
53653;DHT22;39553;52.954;5.932;2023-07-09T13:00:57;33.80;18.10
53653;DHT22;39553;52.954;5.932;2023-07-09T13:03:31;33.80;17.70
53653;DHT22;39553;52.954;5.932;2023-07-09T13:06:01;33.60;17.40
53653;DHT22;39553;52.954;5.932;2023-07-09T13:08:31;33.50;17.30
53653;DHT22;39553;52.954;5.932;2023-07-09T13:11:00;33.30;17.20
53653;DHT22;39553;52.954;5.932;2023-07-09T13:13:26;33.20;17.20
53653;DHT22;39553;52.954;5.932;2023-07-09T13:15:55;32.90;16.90
53653;DHT22;39553;52.954;5.932;2023-07-09T13:18:27;32.60;17.30
53653;DHT22;39553;52.954;5.932;2023-07-09T13:20:54;32.30;17.80
53653;DHT22;39553;52.954;5.932;2023-07-09T13:23:28;32.20;18.00
53653;DHT22;39553;52.954;5.932;2023-07-09T13:25:56;32.10;18.00
53653;DHT22;39553;52.954;5.932;2023-07-09T13:28:26;32.00;18.40
53653;DHT22;39553;52.954;5.932;2023-07-09T13:31:16;31.80;18.50
53653;DHT22;39553;52.954;5.932;2023-07-09T13:33:42;31.70;19.10
53653;DHT22;39553;52.954;5.932;2023-07-09T13:36:08;31.50;19.40
53653;DHT22;39553;52.954;5.932;2023-07-09T13:38:35;31.50;19.40
53653;DHT22;39553;52.954;5.932;2023-07-09T13:41:13;31.70;19.60
53653;DHT22;39553;52.954;5.932;2023-07-09T13:43:43;31.80;19.70
53653;DHT22;39553;52.954;5.932;2023-07-09T13:46:10;31.90;19.00
53653;DHT22;39553;52.954;5.932;2023-07-09T13:48:38;31.90;19.10
53653;DHT22;39553;52.954;5.932;2023-07-09T13:51:22;31.90;18.40
53653;DHT22;39553;52.954;5.932;2023-07-09T13:53:51;31.90;18.30
53653;DHT22;39553;52.954;5.932;2023-07-09T13:56:17;31.90;17.90
53653;DHT22;39553;52.954;5.932;2023-07-09T13:58:43;31.90;18.10
53653;DHT22;39553;52.954;5.932;2023-07-09T14:01:13;31.90;18.30
53653;DHT22;39553;52.954;5.932;2023-07-09T14:03:40;31.80;18.80
53653;DHT22;39553;52.954;5.932;2023-07-09T14:06:15;31.80;20.00
53653;DHT22;39553;52.954;5.932;2023-07-09T14:08:41;31.70;20.00
53653;DHT22;39553;52.954;5.932;2023-07-09T14:11:14;31.50;20.10
53653;DHT22;39553;52.954;5.932;2023-07-09T14:13:41;31.10;20.20
53653;DHT22;39553;52.954;5.932;2023-07-09T14:16:11;30.70;20.50
53653;DHT22;39553;52.954;5.932;2023-07-09T14:18:37;30.20;21.00
53653;DHT22;39553;52.954;5.932;2023-07-09T14:21:11;29.80;20.80
53653;DHT22;39553;52.954;5.932;2023-07-09T14:23:39;29.50;21.30
53653;DHT22;39553;52.954;5.932;2023-07-09T14:26:04;29.20;22.10
53653;DHT22;39553;52.954;5.932;2023-07-09T14:28:30;28.70;22.90
53653;DHT22;39553;52.954;5.932;2023-07-09T14:30:56;28.20;23.10
53653;DHT22;39553;52.954;5.932;2023-07-09T14:33:22;27.70;25.40
53653;DHT22;39553;52.954;5.932;2023-07-09T14:35:49;27.30;27.20
53653;DHT22;39553;52.954;5.932;2023-07-09T14:38:20;26.90;28.30
53653;DHT22;39553;52.954;5.932;2023-07-09T14:40:48;25.00;99.90
53653;DHT22;39553;52.954;5.932;2023-07-09T14:43:14;25.20;99.90
53653;DHT22;39553;52.954;5.932;2023-07-09T14:45:41;23.80;99.90
53653;DHT22;39553;52.954;5.932;2023-07-09T14:48:15;21.90;99.90
53653;DHT22;39553;52.954;5.932;2023-07-09T14:50:41;21.20;99.90
53653;DHT22;39553;52.954;5.932;2023-07-09T14:53:14;21.20;99.90
53653;DHT22;39553;52.954;5.932;2023-07-09T14:55:41;22.40;99.90
53653;DHT22;39553;52.954;5.932;2023-07-09T14:58:18;21.60;99.90
53653;DHT22;39553;52.954;5.932;2023-07-09T15:00:45;21.60;99.90
53653;DHT22;39553;52.954;5.932;2023-07-09T15:03:19;21.50;99.90
53653;DHT22;39553;52.954;5.932;2023-07-09T15:05:45;21.30;99.90
53653;DHT22;39553;52.954;5.932;2023-07-09T15:08:17;21.80;99.90
53653;DHT22;39553;52.954;5.932;2023-07-09T15:10:43;21.80;99.90
53653;DHT22;39553;52.954;5.932;2023-07-09T15:13:19;21.50;99.90
53653;DHT22;39553;52.954;5.932;2023-07-09T15:15:45;21.70;99.90
53653;DHT22;39553;52.954;5.932;2023-07-09T15:18:13;22.00;99.90
53653;DHT22;39553;52.954;5.932;2023-07-09T15:20:43;22.40;99.90
53653;DHT22;39553;52.954;5.932;2023-07-09T15:23:11;22.50;99.90
53653;DHT22;39553;52.954;5.932;2023-07-09T15:25:37;22.30;99.90
53653;DHT22;39553;52.954;5.932;2023-07-09T15:28:03;22.20;99.90
53653;DHT22;39553;52.954;5.932;2023-07-09T15:30:30;23.20;99.90
53653;DHT22;39553;52.954;5.932;2023-07-09T15:32:58;22.50;99.90
53653;DHT22;39553;52.954;5.932;2023-07-09T15:35:31;21.90;99.90
53653;DHT22;39553;52.954;5.932;2023-07-09T15:37:57;22.80;99.90
53653;DHT22;39553;52.954;5.932;2023-07-09T15:40:27;21.90;99.90
53653;DHT22;39553;52.954;5.932;2023-07-09T15:43:00;22.80;99.90
53653;DHT22;39553;52.954;5.932;2023-07-09T15:45:26;21.70;99.90
53653;DHT22;39553;52.954;5.932;2023-07-09T15:47:52;21.50;99.90
53653;DHT22;39553;52.954;5.932;2023-07-09T15:50:26;22.30;99.90
53653;DHT22;39553;52.954;5.932;2023-07-09T15:52:53;22.00;99.90
53653;DHT22;39553;52.954;5.932;2023-07-09T15:55:22;21.20;99.90
53653;DHT22;39553;52.954;5.932;2023-07-09T15:57:49;22.20;99.90
53653;DHT22;39553;52.954;5.932;2023-07-09T16:00:23;21.40;99.90
53653;DHT22;39553;52.954;5.932;2023-07-09T16:02:50;21.50;99.90
53653;DHT22;39553;52.954;5.932;2023-07-09T16:05:25;21.10;99.90
53653;DHT22;39553;52.954;5.932;2023-07-09T16:07:53;22.10;99.90
53653;DHT22;39553;52.954;5.932;2023-07-09T16:10:20;22.20;99.90
53653;DHT22;39553;52.954;5.932;2023-07-09T16:12:47;22.00;99.90
53653;DHT22;39553;52.954;5.932;2023-07-09T16:15:19;21.50;99.90
53653;DHT22;39553;52.954;5.932;2023-07-09T16:17:46;21.80;99.90
53653;DHT22;39553;52.954;5.932;2023-07-09T16:20:14;21.40;99.90
53653;DHT22;39553;52.954;5.932;2023-07-09T16:22:41;21.90;99.90
53653;DHT22;39553;52.954;5.932;2023-07-09T16:25:20;21.10;99.90
53653;DHT22;39553;52.954;5.932;2023-07-09T16:27:47;21.00;99.90